Ta Tsun — FGA3123 — position and weather

sailwx.info

Track history (hours):
 
Tides and Currents Weather Stations Pressure Air Temp Water Temp Dewpoint Dewpoint Depression Visibility Wind Speed Wind Dir Waves Ship Positions

Ta Tsun

Last reported at 2017-Aug-29 11:07 UTC. Time now 2017-Sep-22 17:22 UTC.
Position N 48°35' W 001°60'.
Warning: this ship's position is 24 days out of date.

Length 10 m.

Type: Sailing vessel. MMSI: 227529190.

Date/timePositionNaut miles runAvg speedWind from/ knotsBaromVisibWave heightAir tempDewpointWater temp
2017-Aug-29 11:07N 48°35' W 001°60'0 3.5
2017-Aug-29 11:00N 48°34' W 001°59'2 0.0
2017-Aug-27 10:15N 48°32' W 001°58'1 4.8
2017-Aug-27 10:00N 48°33' W 001°59'3 5.7
2017-Aug-27 09:24N 48°36' W 002°01'1 1.9
2017-Aug-27 08:51N 48°37' W 002°02'1 2.2
2017-Aug-27 08:28N 48°38' W 002°02'0 0.0
2017-Aug-27 07:52N 48°38' W 002°02'0 0.0
2017-Aug-27 07:22N 48°38' W 002°02'0 0.0
2017-Aug-27 06:43N 48°38' W 002°02'0 0.0
2017-Aug-27 06:28N 48°38' W 002°02'0 0.0
2017-Aug-27 05:46N 48°38' W 002°02'0 0.0
2017-Aug-27 05:13N 48°38' W 002°02'0 0.0
2017-Aug-27 04:10N 48°38' W 002°02'0 0.0
2017-Aug-27 03:19N 48°38' W 002°02'0 0.0
2017-Aug-27 02:58N 48°38' W 002°02'0 0.0
2017-Aug-27 02:22N 48°38' W 002°02'0 0.0
2017-Aug-27 01:55N 48°38' W 002°02'0 0.0
2017-Aug-27 01:25N 48°38' W 002°02'0 0.0
2017-Aug-27 00:55N 48°38' W 002°02'0 0.0
2017-Aug-27 00:28N 48°38' W 002°02'0 0.0
2017-Aug-26 23:13N 48°38' W 002°02'0 0.0
2017-Aug-26 22:58N 48°38' W 002°02'0 0.0
2017-Aug-26 22:16N 48°38' W 002°02'0 0.0
2017-Aug-26 21:58N 48°38' W 002°02'0 0.0
2017-Aug-26 20:58N 48°38' W 002°02'0 0.0
2017-Aug-26 19:46N 48°38' W 002°02'0 0.0
2017-Aug-26 19:10N 48°38' W 002°02'0 0.0
2017-Aug-26 18:46N 48°38' W 002°02'0 0.0
2017-Aug-26 18:28N 48°38' W 002°02'0 0.0
2017-Aug-26 18:00N 48°38' W 002°02'3 4.4
2017-Aug-26 17:25N 48°40' W 002°05'3 5.7
2017-Aug-26 16:56N 48°40' W 002°09'3 4.9
2017-Aug-26 16:25N 48°41' W 002°13'2 4.8
2017-Aug-26 15:56N 48°42' W 002°16'2 4.4
2017-Aug-26 15:30N 48°42' W 002°19'1 2.5
2017-Aug-26 14:56N 48°42' W 002°21'5 2.7
2017-Aug-26 13:14N 48°42' W 002°28'3 2.8
2017-Aug-26 12:13N 48°42' W 002°33'1 3.2
2017-Aug-26 12:00N 48°42' W 002°34'2 3.0
2017-Aug-26 11:20N 48°42' W 002°37'1 2.3
2017-Aug-26 11:00N 48°42' W 002°38'2 2.6
2017-Aug-26 10:24N 48°41' W 002°40'1 2.5
2017-Aug-26 10:00N 48°41' W 002°42'2 2.7
2017-Aug-26 09:21N 48°41' W 002°44'1 3.8
2017-Aug-26 08:59N 48°41' W 002°46'2 3.3
2017-Aug-26 08:29N 48°41' W 002°49'2 3.5
2017-Aug-26 07:57N 48°39' W 002°49'0 0.3
2017-Aug-26 07:25N 48°39' W 002°49'0 0.0
2017-Aug-26 06:58N 48°39' W 002°49'0 0.0
2017-Aug-26 06:16N 48°39' W 002°49'0 0.0
2017-Aug-26 05:52N 48°39' W 002°49'0 0.0
2017-Aug-26 05:28N 48°39' W 002°49'0 0.0
2017-Aug-26 04:58N 48°39' W 002°49'0 0.0
2017-Aug-26 04:25N 48°39' W 002°49'0 0.0
2017-Aug-26 03:58N 48°39' W 002°49'0 0.0
2017-Aug-26 03:25N 48°39' W 002°49'0 0.0
2017-Aug-26 02:58N 48°39' W 002°49'0 0.0
2017-Aug-26 02:25N 48°39' W 002°49'0 0.0
2017-Aug-26 01:58N 48°39' W 002°49'0 0.0
2017-Aug-26 01:19N 48°39' W 002°49'0 0.0
2017-Aug-26 00:01N 48°39' W 002°49'0 0.0
2017-Aug-25 23:55N 48°39' W 002°49'0 0.0
2017-Aug-25 23:28N 48°39' W 002°49'0 0.0
2017-Aug-25 19:10N 48°39' W 002°49'0 0.0
2017-Aug-25 18:52N 48°39' W 002°49'0 0.0
2017-Aug-25 18:28N 48°39' W 002°49'0 0.0
2017-Aug-25 17:58N 48°39' W 002°49'0 0.0
2017-Aug-25 17:28N 48°39' W 002°49'0 0.0
2017-Aug-25 16:58N 48°39' W 002°49'0 0.0
2017-Aug-25 16:28N 48°39' W 002°49'0 0.0
2017-Aug-25 15:58N 48°39' W 002°49'0 0.0
2017-Aug-25 15:28N 48°39' W 002°49'0 0.0
2017-Aug-25 14:58N 48°39' W 002°49'0 0.0
2017-Aug-25 13:58N 48°39' W 002°49'0 0.0
2017-Aug-25 13:19N 48°39' W 002°49'0 0.0
2017-Aug-25 12:58N 48°39' W 002°49'0 0.0
2017-Aug-25 12:25N 48°39' W 002°49'0 0.0
2017-Aug-25 11:52N 48°39' W 002°49'0 0.0
2017-Aug-25 11:25N 48°39' W 002°49'0 0.0
2017-Aug-25 10:16N 48°39' W 002°49'0 0.0
2017-Aug-25 09:52N 48°39' W 002°49'0 0.0
2017-Aug-25 09:07N 48°39' W 002°49'0 0.0
2017-Aug-25 08:58N 48°39' W 002°49'0 0.0
2017-Aug-25 08:04N 48°39' W 002°49'0 0.0
2017-Aug-25 07:07N 48°39' W 002°49'0 0.0
2017-Aug-25 06:46N 48°39' W 002°49'0 0.0
2017-Aug-25 06:28N 48°39' W 002°49'0 0.0
2017-Aug-25 05:58N 48°39' W 002°49'0 0.0
2017-Aug-25 04:34N 48°39' W 002°49'0 0.0
2017-Aug-25 04:10N 48°39' W 002°49'0 0.0
2017-Aug-25 03:58N 48°39' W 002°49'0 0.0
2017-Aug-25 02:37N 48°39' W 002°49'0 0.0
2017-Aug-25 02:28N 48°39' W 002°49'0 0.0
2017-Aug-25 01:52N 48°39' W 002°49'0 0.0
2017-Aug-25 01:28N 48°39' W 002°49'0 0.0
2017-Aug-25 00:55N 48°39' W 002°49'0 0.0
2017-Aug-24 23:28N 48°39' W 002°49'0 0.0
2017-Aug-24 22:07N 48°39' W 002°49'0 0.0
2017-Aug-24 19:25N 48°39' W 002°49'0 0.0
2017-Aug-24 18:52N 48°39' W 002°49'0 0.0
2017-Aug-24 18:22N 48°39' W 002°49'0 0.0
2017-Aug-24 17:58N 48°39' W 002°49'0 0.0
2017-Aug-24 17:28N 48°39' W 002°49'1 0.5
2017-Aug-24 16:07N 48°40' W 002°49'3 4.2
2017-Aug-24 15:19N 48°42' W 002°52'2 4.6
2017-Aug-24 14:58N 48°43' W 002°54'2 0.3
2017-Aug-24 10:09N 48°44' W 002°56'1 3.1
2017-Aug-24 09:59N 48°44' W 002°56'  
Track history (hours):
 
Tides and Currents Weather Stations Pressure Air Temp Water Temp Dewpoint Dewpoint Depression Visibility Wind Speed Wind Dir Waves Ship Positions

Ta Tsun

Last reported at 2017-Aug-29 11:07 UTC. Time now 2017-Sep-22 17:22 UTC.
Position N 48°35' W 001°60'.
Warning: this ship's position is 24 days out of date.

Length 10 m.

Type: Sailing vessel. MMSI: 227529190.

Date/timePositionNaut miles runAvg speedWind from/ knotsBaromVisibWave heightAir tempDewpointWater temp
2017-Aug-29 11:07N 48°35' W 001°60'0 3.5
2017-Aug-29 11:00N 48°34' W 001°59'2 0.0
2017-Aug-27 10:15N 48°32' W 001°58'1 4.8
2017-Aug-27 10:00N 48°33' W 001°59'3 5.7
2017-Aug-27 09:24N 48°36' W 002°01'1 1.9
2017-Aug-27 08:51N 48°37' W 002°02'1 2.2
2017-Aug-27 08:28N 48°38' W 002°02'0 0.0
2017-Aug-27 07:52N 48°38' W 002°02'0 0.0
2017-Aug-27 07:22N 48°38' W 002°02'0 0.0
2017-Aug-27 06:43N 48°38' W 002°02'0 0.0
2017-Aug-27 06:28N 48°38' W 002°02'0 0.0
2017-Aug-27 05:46N 48°38' W 002°02'0 0.0
2017-Aug-27 05:13N 48°38' W 002°02'0 0.0
2017-Aug-27 04:10N 48°38' W 002°02'0 0.0
2017-Aug-27 03:19N 48°38' W 002°02'0 0.0
2017-Aug-27 02:58N 48°38' W 002°02'0 0.0
2017-Aug-27 02:22N 48°38' W 002°02'0 0.0
2017-Aug-27 01:55N 48°38' W 002°02'0 0.0
2017-Aug-27 01:25N 48°38' W 002°02'0 0.0
2017-Aug-27 00:55N 48°38' W 002°02'0 0.0
2017-Aug-27 00:28N 48°38' W 002°02'0 0.0
2017-Aug-26 23:13N 48°38' W 002°02'0 0.0
2017-Aug-26 22:58N 48°38' W 002°02'0 0.0
2017-Aug-26 22:16N 48°38' W 002°02'0 0.0
2017-Aug-26 21:58N 48°38' W 002°02'0 0.0
2017-Aug-26 20:58N 48°38' W 002°02'0 0.0
2017-Aug-26 19:46N 48°38' W 002°02'0 0.0
2017-Aug-26 19:10N 48°38' W 002°02'0 0.0
2017-Aug-26 18:46N 48°38' W 002°02'0 0.0
2017-Aug-26 18:28N 48°38' W 002°02'0 0.0
2017-Aug-26 18:00N 48°38' W 002°02'3 4.4
2017-Aug-26 17:25N 48°40' W 002°05'3 5.7
2017-Aug-26 16:56N 48°40' W 002°09'3 4.9
2017-Aug-26 16:25N 48°41' W 002°13'2 4.8
2017-Aug-26 15:56N 48°42' W 002°16'2 4.4
2017-Aug-26 15:30N 48°42' W 002°19'1 2.5
2017-Aug-26 14:56N 48°42' W 002°21'5 2.7
2017-Aug-26 13:14N 48°42' W 002°28'3 2.8
2017-Aug-26 12:13N 48°42' W 002°33'1 3.2
2017-Aug-26 12:00N 48°42' W 002°34'2 3.0
2017-Aug-26 11:20N 48°42' W 002°37'1 2.3
2017-Aug-26 11:00N 48°42' W 002°38'2 2.6
2017-Aug-26 10:24N 48°41' W 002°40'1 2.5
2017-Aug-26 10:00N 48°41' W 002°42'2 2.7
2017-Aug-26 09:21N 48°41' W 002°44'1 3.8
2017-Aug-26 08:59N 48°41' W 002°46'2 3.3
2017-Aug-26 08:29N 48°41' W 002°49'2 3.5
2017-Aug-26 07:57N 48°39' W 002°49'0 0.3
2017-Aug-26 07:25N 48°39' W 002°49'0 0.0
2017-Aug-26 06:58N 48°39' W 002°49'0 0.0
2017-Aug-26 06:16N 48°39' W 002°49'0 0.0
2017-Aug-26 05:52N 48°39' W 002°49'0 0.0
2017-Aug-26 05:28N 48°39' W 002°49'0 0.0
2017-Aug-26 04:58N 48°39' W 002°49'0 0.0
2017-Aug-26 04:25N 48°39' W 002°49'0 0.0
2017-Aug-26 03:58N 48°39' W 002°49'0 0.0
2017-Aug-26 03:25N 48°39' W 002°49'0 0.0
2017-Aug-26 02:58N 48°39' W 002°49'0 0.0
2017-Aug-26 02:25N 48°39' W 002°49'0 0.0
2017-Aug-26 01:58N 48°39' W 002°49'0 0.0
2017-Aug-26 01:19N 48°39' W 002°49'0 0.0
2017-Aug-26 00:01N 48°39' W 002°49'0 0.0
2017-Aug-25 23:55N 48°39' W 002°49'0 0.0
2017-Aug-25 23:28N 48°39' W 002°49'0 0.0
2017-Aug-25 19:10N 48°39' W 002°49'0 0.0
2017-Aug-25 18:52N 48°39' W 002°49'0 0.0
2017-Aug-25 18:28N 48°39' W 002°49'0 0.0
2017-Aug-25 17:58N 48°39' W 002°49'0 0.0
2017-Aug-25 17:28N 48°39' W 002°49'0 0.0
2017-Aug-25 16:58N 48°39' W 002°49'0 0.0
2017-Aug-25 16:28N 48°39' W 002°49'0 0.0
2017-Aug-25 15:58N 48°39' W 002°49'0 0.0
2017-Aug-25 15:28N 48°39' W 002°49'0 0.0
2017-Aug-25 14:58N 48°39' W 002°49'0 0.0
2017-Aug-25 13:58N 48°39' W 002°49'0 0.0
2017-Aug-25 13:19N 48°39' W 002°49'0 0.0
2017-Aug-25 12:58N 48°39' W 002°49'0 0.0
2017-Aug-25 12:25N 48°39' W 002°49'0 0.0
2017-Aug-25 11:52N 48°39' W 002°49'0 0.0
2017-Aug-25 11:25N 48°39' W 002°49'0 0.0
2017-Aug-25 10:16N 48°39' W 002°49'0 0.0
2017-Aug-25 09:52N 48°39' W 002°49'0 0.0
2017-Aug-25 09:07N 48°39' W 002°49'0 0.0
2017-Aug-25 08:58N 48°39' W 002°49'0 0.0
2017-Aug-25 08:04N 48°39' W 002°49'0 0.0
2017-Aug-25 07:07N 48°39' W 002°49'0 0.0
2017-Aug-25 06:46N 48°39' W 002°49'0 0.0
2017-Aug-25 06:28N 48°39' W 002°49'0 0.0
2017-Aug-25 05:58N 48°39' W 002°49'0 0.0
2017-Aug-25 04:34N 48°39' W 002°49'0 0.0
2017-Aug-25 04:10N 48°39' W 002°49'0 0.0
2017-Aug-25 03:58N 48°39' W 002°49'0 0.0
2017-Aug-25 02:37N 48°39' W 002°49'0 0.0
2017-Aug-25 02:28N 48°39' W 002°49'0 0.0
2017-Aug-25 01:52N 48°39' W 002°49'0 0.0
2017-Aug-25 01:28N 48°39' W 002°49'0 0.0
2017-Aug-25 00:55N 48°39' W 002°49'0 0.0
2017-Aug-24 23:28N 48°39' W 002°49'0 0.0
2017-Aug-24 22:07N 48°39' W 002°49'0 0.0
2017-Aug-24 19:25N 48°39' W 002°49'0 0.0
2017-Aug-24 18:52N 48°39' W 002°49'0 0.0
2017-Aug-24 18:22N 48°39' W 002°49'0 0.0
2017-Aug-24 17:58N 48°39' W 002°49'0 0.0
2017-Aug-24 17:28N 48°39' W 002°49'1 0.5
2017-Aug-24 16:07N 48°40' W 002°49'3 4.2
2017-Aug-24 15:19N 48°42' W 002°52'2 4.6
2017-Aug-24 14:58N 48°43' W 002°54'2 0.3
2017-Aug-24 10:09N 48°44' W 002°56'1 3.1
2017-Aug-24 09:59N 48°44' W 002°56'  

Dump ship's entire track history